Time;durP1;ratioP1;P1;durP2;ratioP2;P2;SDS_P1;SDS_P2;PMS_P1;PMS_P2;Temp;Humidity;BMP_temperature;BMP_pressure;BME280_temperature;BME280_humidity;BME280_pressure;Samples;Min_cycle;Max_cycle;Signal;HPM_P1;HPM_P2
2023/09/05 00:00:06;;;;;;;2.35;1.70;;;23.70;59.60;;;;;;4986351;28;88822;-86
2023/09/05 00:02:32;;;;;;;1.80;1.50;;;23.70;59.60;;;;;;4987361;28;87614;-86
2023/09/05 00:04:58;;;;;;;2.83;1.88;;;23.70;59.80;;;;;;4985374;28;88362;-85
2023/09/05 00:07:24;;;;;;;1.70;1.60;;;23.70;59.60;;;;;;4985927;28;88081;-86
2023/09/05 00:09:49;;;;;;;2.53;1.70;;;23.70;59.60;;;;;;4987069;28;87389;-85
2023/09/05 00:12:15;;;;;;;3.13;2.00;;;23.70;59.60;;;;;;4985902;28;87178;-86
2023/09/05 00:14:41;;;;;;;1.55;1.45;;;23.60;59.60;;;;;;4966837;28;94521;-85
2023/09/05 00:17:07;;;;;;;2.00;1.45;;;23.60;59.60;;;;;;4985029;28;87795;-85
2023/09/05 00:19:32;;;;;;;2.22;1.70;;;23.60;59.60;;;;;;4985707;28;88142;-85
2023/09/05 00:21:58;;;;;;;5.28;1.63;;;23.60;59.60;;;;;;4967567;28;89716;-85
2023/09/05 00:24:37;;;;;;;2.80;1.75;;;23.60;59.70;;;;;;4966336;28;91607;-85
2023/09/05 00:27:06;;;;;;;;;;;23.60;59.80;;;;;;4987101;28;89855;-85
2023/09/05 00:29:31;;;;;;;2.92;1.73;;;23.60;59.80;;;;;;4968612;28;87119;-86
2023/09/05 00:32:00;;;;;;;1.73;1.48;;;23.60;59.80;;;;;;4985539;28;87724;-85
2023/09/05 00:34:27;;;;;;;2.20;2.00;;;23.60;59.80;;;;;;4985818;28;88071;-85
2023/09/05 00:36:53;;;;;;;2.33;1.50;;;23.60;59.90;;;;;;4986489;28;87510;-85
2023/09/05 00:39:19;;;;;;;2.85;1.85;;;23.60;59.80;;;;;;4985201;28;87415;-86
2023/09/05 00:41:45;;;;;;;1.65;1.55;;;23.60;60.00;;;;;;4985618;28;86798;-86
2023/09/05 00:44:13;;;;;;;1.80;1.50;;;23.60;59.90;;;;;;4984459;28;87496;-86
2023/09/05 00:46:41;;;;;;;1.75;1.60;;;23.60;59.90;;;;;;4986101;28;87505;-85
2023/09/05 00:49:12;;;;;;;2.22;1.80;;;23.60;60.00;;;;;;4983305;28;88295;-85
2023/09/05 00:51:39;;;;;;;1.60;1.50;;;23.60;60.00;;;;;;4986168;28;87475;-86
2023/09/05 00:54:06;;;;;;;2.75;1.50;;;23.60;59.90;;;;;;4968055;28;90970;-86
2023/09/05 00:56:32;;;;;;;1.70;1.60;;;23.60;60.00;;;;;;4986235;28;87188;-86
2023/09/05 00:58:59;;;;;;;3.47;1.55;;;23.60;60.10;;;;;;4984750;28;87392;-85
2023/09/05 01:01:25;;;;;;;2.10;1.70;;;23.50;60.10;;;;;;4983130;28;87609;-85
2023/09/05 01:03:54;;;;;;;2.28;1.80;;;23.60;60.80;;;;;;4982320;28;90474;-86
2023/09/05 01:06:31;;;;;;;3.03;1.70;;;23.60;60.30;;;;;;4981963;28;89584;-86
2023/09/05 01:09:10;;;;;;;3.05;1.88;;;23.50;60.10;;;;;;4964059;28;87763;-86
2023/09/05 01:11:35;;;;;;;1.70;1.60;;;23.50;60.30;;;;;;4984483;28;87848;-86
2023/09/05 01:14:01;;;;;;;1.92;1.60;;;23.50;60.10;;;;;;4983742;28;88440;-86
2023/09/05 01:16:26;;;;;;;2.15;1.40;;;23.50;60.40;;;;;;4984387;28;88399;-85
2023/09/05 01:18:52;;;;;;;1.67;1.58;;;23.50;60.20;;;;;;4984797;28;87383;-85
2023/09/05 01:21:26;;;;;;;1.80;1.60;;;23.50;60.20;;;;;;4985123;28;87908;-86
2023/09/05 01:24:20;;;;;;;1.70;1.45;;;23.50;60.20;;;;;;4985052;28;88126;-85
2023/09/05 01:26:47;;;;;;;1.42;1.33;;;23.50;60.40;;;;;;4983500;28;87993;-85
2023/09/05 01:29:15;;;;;;;2.03;1.70;;;23.50;60.30;;;;;;4986066;28;87303;-85
2023/09/05 01:31:45;;;;;;;4.18;1.52;;;23.50;60.30;;;;;;4984132;28;86912;-85
2023/09/05 01:34:11;;;;;;;1.95;1.70;;;23.50;60.20;;;;;;4965843;28;88520;-86
2023/09/05 01:36:37;;;;;;;3.38;1.67;;;23.50;60.30;;;;;;4984865;28;87110;-85
2023/09/05 01:39:04;;;;;;;2.00;1.55;;;23.50;60.40;;;;;;4983040;28;88934;-85
2023/09/05 01:41:29;;;;;;;2.42;1.95;;;23.50;60.40;;;;;;4984458;28;88057;-85
2023/09/05 01:43:55;;;;;;;1.95;1.40;;;23.50;60.20;;;;;;4983446;28;87739;-85
2023/09/05 01:46:21;;;;;;;2.63;1.70;;;23.50;60.30;;;;;;4984256;28;88157;-85
2023/09/05 01:48:46;;;;;;;1.90;1.70;;;23.50;60.20;;;;;;4966830;28;88056;-86
2023/09/05 01:51:12;;;;;;;2.30;1.73;;;23.50;60.40;;;;;;4965599;28;89589;-86
2023/09/05 01:53:37;;;;;;;2.35;1.90;;;23.50;60.40;;;;;;4982698;28;89256;-85
2023/09/05 01:56:03;;;;;;;1.70;1.60;;;23.50;60.40;;;;;;4983484;28;87250;-85
2023/09/05 01:58:29;;;;;;;1.60;1.50;;;23.50;60.40;;;;;;4984938;28;88044;-85
2023/09/05 02:00:54;;;;;;;1.60;1.50;;;23.50;60.50;;;;;;4984549;28;87637;-85
2023/09/05 02:03:20;;;;;;;1.52;1.40;;;23.50;60.60;;;;;;4964585;28;88639;-85
2023/09/05 02:05:45;;;;;;;2.38;1.73;;;23.50;60.50;;;;;;4983775;28;89714;-86
2023/09/05 02:08:11;;;;;;;1.73;1.60;;;23.40;60.50;;;;;;4982621;28;88205;-85
2023/09/05 02:10:37;;;;;;;1.92;1.60;;;23.50;60.50;;;;;;4984591;28;88221;-85
2023/09/05 02:13:02;;;;;;;1.67;1.42;;;23.50;60.50;;;;;;4984372;28;88495;-85
2023/09/05 02:15:28;;;;;;;2.00;1.58;;;23.40;60.40;;;;;;4964145;28;90024;-85
2023/09/05 02:17:55;;;;;;;1.85;1.73;;;23.40;60.70;;;;;;4983278;28;87617;-85
2023/09/05 02:20:22;;;;;;;4.03;2.22;;;23.40;60.60;;;;;;4983760;28;88092;-85
2023/09/05 02:22:48;;;;;;;1.80;1.70;;;23.40;60.60;;;;;;4982520;28;88482;-85
2023/09/05 02:25:14;;;;;;;1.48;1.38;;;23.40;60.60;;;;;;4985230;28;88188;-85
2023/09/05 02:27:39;;;;;;;1.70;1.60;;;23.40;60.60;;;;;;4984594;28;88133;-85
2023/09/05 02:30:07;;;;;;;1.60;1.50;;;23.40;60.60;;;;;;4985315;28;87689;-85
2023/09/05 02:32:33;;;;;;;1.98;1.77;;;23.40;60.70;;;;;;4984697;28;88155;-86
2023/09/05 02:34:59;;;;;;;1.77;1.55;;;23.40;60.60;;;;;;4966243;28;90397;-86
2023/09/05 02:37:26;;;;;;;1.88;1.77;;;23.40;60.80;;;;;;4965356;28;87964;-86
2023/09/05 02:39:52;;;;;;;1.55;1.45;;;23.40;60.70;;;;;;4984286;28;86894;-86
2023/09/05 02:42:18;;;;;;;2.92;1.75;;;23.40;60.90;;;;;;4984655;28;87614;-86
2023/09/05 02:44:44;;;;;;;2.08;1.60;;;23.40;60.80;;;;;;4983911;28;87582;-86
2023/09/05 02:47:09;;;;;;;2.15;1.58;;;23.40;60.90;;;;;;4984942;28;87814;-85
2023/09/05 02:49:35;;;;;;;2.20;1.70;;;23.40;60.70;;;;;;4983446;28;87621;-85
2023/09/05 02:52:01;;;;;;;1.80;1.60;;;23.40;60.80;;;;;;4984837;28;88849;-85
2023/09/05 02:54:29;;;;;;;1.85;1.33;;;23.40;60.60;;;;;;4964788;28;91694;-86
2023/09/05 02:56:55;;;;;;;1.92;1.73;;;23.40;60.70;;;;;;4965113;28;88293;-86
2023/09/05 02:59:21;;;;;;;2.05;1.52;;;23.40;60.60;;;;;;4982511;28;87923;-85
2023/09/05 03:01:47;;;;;;;1.50;1.40;;;23.40;60.70;;;;;;4983106;28;88177;-86
2023/09/05 03:04:16;;;;;;;2.35;1.45;;;23.30;60.50;;;;;;4983132;28;87608;-86
2023/09/05 03:06:42;;;;;;;2.45;1.77;;;23.40;60.90;;;;;;4963683;28;88087;-86
2023/09/05 03:09:08;;;;;;;2.15;1.90;;;23.30;60.90;;;;;;4982485;28;88311;-86
2023/09/05 03:11:33;;;;;;;1.75;1.65;;;23.30;60.80;;;;;;4983175;28;88078;-86
2023/09/05 03:14:01;;;;;;;3.50;1.80;;;23.30;60.90;;;;;;4981724;28;87585;-87
2023/09/05 03:16:28;;;;;;;2.05;1.85;;;23.30;60.70;;;;;;4963029;28;88907;-86
2023/09/05 03:18:59;;;;;;;2.05;1.60;;;23.30;60.90;;;;;;4983478;28;87451;-86
2023/09/05 03:21:25;;;;;;;2.20;1.73;;;23.40;61.00;;;;;;4983624;28;88014;-85
2023/09/05 03:23:52;;;;;;;1.50;1.40;;;23.30;60.90;;;;;;4964169;28;90559;-86
2023/09/05 03:26:18;;;;;;;1.50;1.40;;;23.30;60.90;;;;;;4983931;28;87960;-86
2023/09/05 03:28:45;;;;;;;2.72;1.77;;;23.30;61.10;;;;;;4983890;28;87618;-85
2023/09/05 03:31:11;;;;;;;1.80;1.65;;;23.30;61.00;;;;;;4986224;28;87556;-85
2023/09/05 03:33:37;;;;;;;2.80;1.58;;;23.30;61.00;;;;;;4984834;28;87863;-86
2023/09/05 03:36:05;;;;;;;2.35;1.80;;;23.30;60.90;;;;;;4984136;28;87310;-85
2023/09/05 03:38:31;;;;;;;1.65;1.33;;;23.30;61.00;;;;;;4983171;28;87831;-85
2023/09/05 03:40:58;;;;;;;1.88;1.67;;;23.30;61.00;;;;;;4964510;28;92486;-85
2023/09/05 03:43:24;;;;;;;1.67;1.30;;;23.30;60.80;;;;;;4982635;28;89731;-86
2023/09/05 03:45:49;;;;;;;1.85;1.58;;;23.30;61.00;;;;;;4983946;28;87980;-85
2023/09/05 03:48:15;;;;;;;1.90;1.60;;;23.30;61.10;;;;;;4982991;28;88044;-85
2023/09/05 03:50:41;;;;;;;1.73;1.63;;;23.30;61.90;;;;;;4963363;28;90676;-85
2023/09/05 03:53:07;;;;;;;2.67;1.88;;;23.30;61.20;;;;;;4985094;28;88264;-86
2023/09/05 03:55:34;;;;;;;2.03;1.58;;;23.20;61.00;;;;;;4986849;28;87324;-85
2023/09/05 03:58:04;;;;;;;1.83;1.30;;;23.30;61.10;;;;;;4968503;28;89293;-85
2023/09/05 04:00:32;;;;;;;1.70;1.60;;;23.20;60.90;;;;;;4967755;28;91023;-85
2023/09/05 04:02:58;;;;;;;3.65;2.33;;;23.20;61.00;;;;;;4987323;28;89166;-85
2023/09/05 04:05:24;;;;;;;1.98;1.58;;;23.20;60.90;;;;;;4985474;28;89626;-86
2023/09/05 04:07:49;;;;;;;1.55;1.38;;;23.20;60.90;;;;;;4969404;28;89635;-85
2023/09/05 04:10:15;;;;;;;1.50;1.40;;;23.20;60.90;;;;;;4985373;28;87714;-86
2023/09/05 04:12:41;;;;;;;1.83;1.60;;;23.30;60.60;;;;;;4985538;28;87610;-85
2023/09/05 04:15:07;;;;;;;1.92;1.70;;;23.20;60.70;;;;;;4986856;28;88015;-86
2023/09/05 04:17:33;;;;;;;1.70;1.60;;;23.20;60.70;;;;;;4985575;28;87012;-85
2023/09/05 04:19:59;;;;;;;3.25;2.08;;;23.20;60.80;;;;;;4985834;28;87994;-86
2023/09/05 04:22:27;;;;;;;1.88;1.58;;;23.20;60.80;;;;;;4968178;28;90305;-85
2023/09/05 04:24:55;;;;;;;1.50;1.40;;;23.20;60.90;;;;;;4985778;28;87496;-85
2023/09/05 04:27:21;;;;;;;1.98;1.45;;;23.20;60.70;;;;;;4965311;28;87747;-85
2023/09/05 04:29:53;;;;;;;1.52;1.30;;;23.20;60.70;;;;;;4985403;28;90516;-86
2023/09/05 04:32:30;;;;;;;1.50;1.40;;;23.20;60.80;;;;;;4984490;28;87654;-87
2023/09/05 04:35:01;;;;;;;1.75;1.50;;;23.20;60.80;;;;;;4984039;28;87544;-86
2023/09/05 04:37:28;;;;;;;1.70;1.58;;;23.20;60.70;;;;;;4985687;28;87721;-86
2023/09/05 04:39:54;;;;;;;1.60;1.40;;;23.20;60.80;;;;;;4968503;28;90723;-86
2023/09/05 04:42:21;;;;;;;2.70;1.52;;;23.20;60.80;;;;;;4987674;28;87654;-86
2023/09/05 04:44:46;;;;;;;1.50;1.40;;;23.20;61.00;;;;;;4986075;28;87677;-85
2023/09/05 04:47:18;;;;;;;1.85;1.73;;;23.20;60.90;;;;;;4986121;28;86990;-86
2023/09/05 04:49:44;;;;;;;1.58;1.48;;;23.20;61.00;;;;;;4962229;28;90254;-85
2023/09/05 04:52:11;;;;;;;1.50;1.33;;;23.20;61.20;;;;;;4964316;28;87910;-85
2023/09/05 04:54:37;;;;;;;1.98;1.70;;;23.20;60.90;;;;;;4964885;28;88971;-86
2023/09/05 04:57:03;;;;;;;1.73;1.63;;;23.20;60.90;;;;;;4963483;28;88661;-86
2023/09/05 04:59:29;;;;;;;1.42;1.13;;;23.20;60.90;;;;;;4964831;28;87215;-85
2023/09/05 05:01:54;;;;;;;1.58;1.48;;;23.20;60.70;;;;;;4964903;28;88344;-85
2023/09/05 05:04:22;;;;;;;1.45;1.35;;;23.20;60.90;;;;;;4964025;28;88163;-85
2023/09/05 05:06:47;;;;;;;1.50;1.40;;;23.20;60.70;;;;;;4948122;28;89631;-86
2023/09/05 05:09:13;;;;;;;1.35;1.25;;;23.20;60.90;;;;;;4964561;28;87885;-85
2023/09/05 05:11:39;;;;;;;1.65;1.55;;;23.20;61.00;;;;;;4965910;28;87678;-85
2023/09/05 05:14:04;;;;;;;1.95;1.60;;;23.20;60.90;;;;;;4965560;28;87369;-85
2023/09/05 05:16:30;;;;;;;2.45;1.48;;;23.20;61.00;;;;;;4947185;28;87747;-86
2023/09/05 05:18:56;;;;;;;2.22;1.92;;;23.20;61.00;;;;;;4965261;28;90059;-86
2023/09/05 05:21:22;;;;;;;1.67;1.50;;;23.20;61.00;;;;;;4963727;28;89188;-85
2023/09/05 05:23:48;;;;;;;1.90;1.50;;;23.20;61.00;;;;;;4977020;28;87891;-85
2023/09/05 05:26:13;;;;;;;1.65;1.55;;;23.20;61.00;;;;;;4984059;28;87585;-86
2023/09/05 05:28:39;;;;;;;1.58;1.48;;;23.20;61.20;;;;;;4983792;28;87751;-85
2023/09/05 05:31:14;;;;;;;1.52;1.42;;;23.20;61.10;;;;;;4985768;28;88049;-85
2023/09/05 05:33:40;;;;;;;1.85;1.50;;;23.20;61.00;;;;;;4984174;28;87988;-85
2023/09/05 05:36:06;;;;;;;2.05;1.80;;;23.20;60.80;;;;;;4982133;28;89577;-86
2023/09/05 05:38:32;;;;;;;1.48;1.38;;;23.20;60.70;;;;;;4982804;28;89994;-85
2023/09/05 05:40:58;;;;;;;1.60;1.50;;;23.30;60.60;;;;;;4985331;28;87880;-85
2023/09/05 05:43:27;;;;;;;1.65;1.55;;;23.30;60.70;;;;;;4984988;28;88533;-86
2023/09/05 05:45:53;;;;;;;1.45;1.35;;;23.30;61.30;;;;;;4984908;28;87543;-86
2023/09/05 05:48:19;;;;;;;1.30;1.20;;;23.20;61.20;;;;;;4985070;28;87884;-85
2023/09/05 05:50:44;;;;;;;1.95;1.70;;;23.20;61.20;;;;;;4965830;28;89006;-85
2023/09/05 05:53:10;;;;;;;1.38;1.27;;;23.20;61.10;;;;;;4966147;28;87673;-85
2023/09/05 05:55:36;;;;;;;1.40;1.30;;;23.30;61.20;;;;;;4984869;28;87503;-86
2023/09/05 05:58:02;;;;;;;1.75;1.60;;;23.20;61.20;;;;;;4966910;28;91049;-85
2023/09/05 06:00:29;;;;;;;2.22;1.67;;;23.20;61.10;;;;;;4985178;28;86652;-86
2023/09/05 06:02:55;;;;;;;2.42;1.70;;;23.20;61.40;;;;;;4965379;28;87493;-85
2023/09/05 06:05:23;;;;;;;1.60;1.50;;;23.30;61.20;;;;;;4966257;28;87969;-86
2023/09/05 06:07:49;;;;;;;2.65;1.88;;;23.20;61.30;;;;;;4983922;28;89138;-86
2023/09/05 06:10:15;;;;;;;1.98;1.50;;;23.20;61.40;;;;;;4984794;28;89190;-86
2023/09/05 06:12:41;;;;;;;1.45;1.35;;;23.30;61.40;;;;;;4982269;28;89098;-87
2023/09/05 06:15:08;;;;;;;2.05;1.45;;;23.30;62.10;;;;;;4982969;28;87787;-85
2023/09/05 06:17:34;;;;;;;1.92;1.63;;;23.30;61.50;;;;;;4983185;28;87532;-85
2023/09/05 06:20:00;;;;;;;2.72;1.25;;;23.30;61.70;;;;;;4983059;28;88058;-86
2023/09/05 06:22:25;;;;;;;1.50;1.40;;;23.30;61.40;;;;;;4984653;28;87091;-85
2023/09/05 06:24:51;;;;;;;1.75;1.30;;;23.40;61.40;;;;;;4964816;28;89465;-86
2023/09/05 06:27:16;;;;;;;1.55;1.45;;;23.40;61.50;;;;;;4982111;28;88475;-85
2023/09/05 06:29:42;;;;;;;1.75;1.60;;;23.40;61.30;;;;;;4965865;28;91073;-85
2023/09/05 06:32:08;;;;;;;1.70;1.58;;;23.50;61.50;;;;;;4965599;28;88475;-85
2023/09/05 06:34:33;;;;;;;4.53;2.03;;;23.60;61.20;;;;;;4984780;28;87747;-85
2023/09/05 06:37:01;;;;;;;3.90;2.17;;;23.70;59.90;;;;;;4965320;28;89584;-84
2023/09/05 06:39:27;;;;;;;7.07;2.72;;;23.70;57.30;;;;;;4984069;28;88174;-84
2023/09/05 06:41:53;;;;;;;8.30;2.28;;;23.70;56.50;;;;;;4985137;28;87947;-87
2023/09/05 06:44:18;;;;;;;11.15;2.60;;;23.70;56.20;;;;;;4982143;28;87413;-84
2023/09/05 06:46:44;;;;;;;8.20;2.75;;;23.70;56.50;;;;;;4983206;28;88148;-86
2023/09/05 06:49:10;;;;;;;6.15;3.40;;;23.60;56.70;;;;;;4984091;28;88384;-85
2023/09/05 06:51:35;;;;;;;15.23;7.70;;;23.60;56.50;;;;;;4982235;28;87953;-84
2023/09/05 06:54:01;;;;;;;14.55;8.93;;;23.60;56.30;;;;;;4982974;28;87684;-85
2023/09/05 06:56:26;;;;;;;14.07;8.60;;;23.60;56.60;;;;;;4982839;28;89083;-85
2023/09/05 06:58:52;;;;;;;10.15;4.80;;;23.60;56.60;;;;;;4974563;28;88504;-86
2023/09/05 07:01:18;;;;;;;9.90;4.45;;;23.60;56.80;;;;;;4964921;28;87862;-86
2023/09/05 07:03:44;;;;;;;6.78;4.20;;;23.50;56.70;;;;;;4983788;28;87895;-84
2023/09/05 07:06:09;;;;;;;8.82;3.55;;;23.50;56.90;;;;;;4982684;28;88310;-85
2023/09/05 07:08:35;;;;;;;5.78;4.15;;;23.40;57.10;;;;;;4962798;28;90942;-84
2023/09/05 07:11:01;;;;;;;7.10;3.97;;;23.50;57.10;;;;;;4982607;28;87954;-85
2023/09/05 07:13:27;;;;;;;6.07;3.58;;;23.50;57.00;;;;;;4963412;28;88264;-85
2023/09/05 07:15:52;;;;;;;9.77;4.22;;;23.50;57.10;;;;;;4981093;28;88307;-85
2023/09/05 07:18:18;;;;;;;8.05;3.28;;;23.50;57.00;;;;;;4983144;28;87818;-85
2023/09/05 07:20:44;;;;;;;6.55;3.78;;;23.60;57.10;;;;;;4977077;28;88437;-85
2023/09/05 07:23:09;;;;;;;10.10;3.28;;;23.60;57.10;;;;;;4982767;28;87693;-84
2023/09/05 07:25:38;;;;;;;9.02;3.45;;;23.50;56.90;;;;;;4981554;28;87801;-84
2023/09/05 07:28:05;;;;;;;5.07;3.30;;;23.60;57.20;;;;;;4984093;28;87762;-85
2023/09/05 07:30:34;;;;;;;5.38;2.90;;;23.60;57.10;;;;;;4967530;28;87744;-87
2023/09/05 07:33:00;;;;;;;5.70;3.55;;;23.60;57.40;;;;;;4984349;28;87670;-84
2023/09/05 07:35:26;;;;;;;6.95;3.55;;;23.60;57.20;;;;;;4981903;28;87706;-85
2023/09/05 07:37:51;;;;;;;4.85;2.97;;;23.60;57.00;;;;;;4985907;28;87786;-85
2023/09/05 07:40:17;;;;;;;6.03;3.22;;;23.60;57.30;;;;;;4967755;28;87640;-84
2023/09/05 07:42:43;;;;;;;5.63;3.42;;;23.60;57.30;;;;;;4986603;28;90817;-85
2023/09/05 07:45:10;;;;;;;7.03;3.22;;;23.70;57.50;;;;;;4984376;28;89207;-84
2023/09/05 07:47:35;;;;;;;49.35;10.73;;;23.70;57.70;;;;;;4984327;28;87927;-84
2023/09/05 07:50:01;;;;;;;33.40;7.40;;;23.70;58.00;;;;;;4984156;28;87479;-83
2023/09/05 07:52:27;;;;;;;21.77;6.25;;;23.70;58.00;;;;;;4985452;28;87029;-86
2023/09/05 07:54:53;;;;;;;16.25;5.07;;;23.70;58.30;;;;;;4986689;28;87445;-84
2023/09/05 07:57:18;;;;;;;14.40;4.85;;;23.70;58.30;;;;;;4985039;28;87929;-84
2023/09/05 07:59:47;;;;;;;10.13;4.38;;;23.70;58.40;;;;;;4985751;28;87629;-84
2023/09/05 08:02:13;;;;;;;8.35;3.78;;;23.80;58.60;;;;;;4987067;28;87184;-84
2023/09/05 08:04:39;;;;;;;6.22;3.38;;;23.70;58.80;;;;;;4986503;28;88305;-84
2023/09/05 08:07:06;;;;;;;5.85;2.97;;;23.70;59.10;;;;;;4986665;28;87453;-85
2023/09/05 08:09:32;;;;;;;7.55;3.08;;;23.70;59.20;;;;;;4985126;28;88172;-84
2023/09/05 08:11:58;;;;;;;8.70;3.03;;;23.60;59.40;;;;;;4985426;28;87859;-84
2023/09/05 08:14:24;;;;;;;7.78;3.05;;;23.70;59.70;;;;;;4985786;28;88174;-85
2023/09/05 08:16:50;;;;;;;10.60;3.47;;;23.70;59.40;;;;;;4987064;28;87585;-85
2023/09/05 08:19:15;;;;;;;7.55;2.90;;;23.70;59.70;;;;;;4986283;28;87489;-84
2023/09/05 08:21:41;;;;;;;5.53;2.78;;;23.70;59.80;;;;;;4985171;28;87705;-84
2023/09/05 08:24:09;;;;;;;6.90;2.85;;;23.70;59.70;;;;;;4967935;28;89456;-84
2023/09/05 08:26:36;;;;;;;7.72;3.65;;;23.70;59.80;;;;;;4985800;28;87491;-84
2023/09/05 08:29:03;;;;;;;4.65;2.40;;;23.70;59.90;;;;;;4983869;28;87642;-84
2023/09/05 08:31:30;;;;;;;4.63;2.65;;;23.70;60.00;;;;;;4965065;28;89281;-84
2023/09/05 08:33:56;;;;;;;4.05;2.85;;;23.80;60.20;;;;;;4984385;28;89437;-85
2023/09/05 08:36:21;;;;;;;4.20;2.60;;;23.80;60.50;;;;;;4985495;28;89187;-84
2023/09/05 08:38:47;;;;;;;5.70;2.65;;;23.80;60.60;;;;;;4983308;28;87901;-84
2023/09/05 08:41:13;;;;;;;6.05;2.80;;;23.80;60.60;;;;;;4985717;28;87913;-85
2023/09/05 08:43:39;;;;;;;4.57;2.50;;;23.90;60.90;;;;;;4985393;28;87441;-85
2023/09/05 08:46:06;;;;;;;8.15;2.72;;;24.00;60.90;;;;;;4986300;28;87579;-84
2023/09/05 08:48:32;;;;;;;6.10;2.95;;;24.00;60.60;;;;;;4984937;28;87343;-84
2023/09/05 08:50:59;;;;;;;4.13;2.83;;;23.90;60.30;;;;;;4985830;28;87345;-83
2023/09/05 08:53:41;;;;;;;3.83;2.78;;;23.90;60.50;;;;;;4985234;28;88021;-84
2023/09/05 08:56:08;;;;;;;4.20;2.17;;;23.90;60.80;;;;;;4965671;28;90129;-85
2023/09/05 08:58:35;;;;;;;4.22;2.72;;;23.80;60.90;;;;;;4983626;28;88471;-85
2023/09/05 09:01:01;;;;;;;6.35;2.35;;;23.80;60.70;;;;;;4984537;28;87331;-86
2023/09/05 09:03:26;;;;;;;5.18;2.35;;;23.80;60.90;;;;;;4964827;28;90780;-85
2023/09/05 09:05:52;;;;;;;3.97;2.20;;;23.70;61.00;;;;;;4984748;28;88286;-86
2023/09/05 09:08:18;;;;;;;3.70;2.10;;;23.70;61.10;;;;;;4983517;28;87551;-86
2023/09/05 09:11:07;;;;;;;3.53;2.10;;;23.80;61.00;;;;;;4985237;28;87808;-84
2023/09/05 09:13:33;;;;;;;5.25;2.22;;;23.70;61.30;;;;;;4985468;28;87967;-87
2023/09/05 09:16:02;;;;;;;3.63;2.30;;;23.80;61.30;;;;;;4985424;28;87811;-86
2023/09/05 09:18:31;;;;;;;6.82;2.30;;;23.80;61.40;;;;;;4966129;28;87409;-85
2023/09/05 09:21:01;;;;;;;3.50;2.10;;;23.80;61.60;;;;;;4983339;28;87224;-86
2023/09/05 09:23:28;;;;;;;6.22;2.90;;;23.80;61.40;;;;;;4982147;28;88467;-84
2023/09/05 09:25:55;;;;;;;5.53;2.40;;;23.80;61.50;;;;;;4985140;28;88732;-86
2023/09/05 09:28:34;;;;;;;9.52;2.28;;;23.80;61.50;;;;;;4985470;28;87909;-85
2023/09/05 09:31:13;;;;;;;3.78;2.50;;;23.80;61.20;;;;;;4984629;28;88468;-86
2023/09/05 09:33:41;;;;;;;3.78;2.22;;;23.80;61.20;;;;;;4984340;28;87687;-85
2023/09/05 09:36:11;;;;;;;3.33;2.40;;;23.90;61.40;;;;;;4984719;28;88735;-86
2023/09/05 09:38:38;;;;;;;5.60;2.47;;;23.80;61.40;;;;;;4984871;28;87516;-85
2023/09/05 09:41:06;;;;;;;5.65;2.60;;;23.80;61.40;;;;;;4961101;28;87833;-85
2023/09/05 09:43:34;;;;;;;4.10;2.33;;;23.90;61.90;;;;;;4964674;28;87664;-86
2023/09/05 09:46:01;;;;;;;2.80;2.03;;;23.90;62.10;;;;;;4983217;28;88508;-85
2023/09/05 09:48:28;;;;;;;3.40;2.15;;;24.00;61.80;;;;;;4982315;28;88549;-85
2023/09/05 09:50:56;;;;;;;7.65;2.53;;;24.00;61.80;;;;;;4965164;28;88743;-86
2023/09/05 09:53:30;;;;;;;4.20;2.75;;;23.90;61.50;;;;;;4983683;28;90470;-85
2023/09/05 09:55:56;;;;;;;3.75;2.65;;;23.90;61.80;;;;;;4980692;28;88508;-85
2023/09/05 09:58:24;;;;;;;3.47;2.13;;;23.90;61.40;;;;;;4981930;28;87106;-86
2023/09/05 10:00:51;;;;;;;3.50;2.50;;;23.90;61.80;;;;;;4980151;28;87609;-86
2023/09/05 10:03:17;;;;;;;6.40;2.28;;;23.80;61.60;;;;;;4984236;28;88699;-86
2023/09/05 10:05:45;;;;;;;4.88;2.20;;;23.80;61.90;;;;;;4986420;28;87756;-86
2023/09/05 10:08:11;;;;;;;3.35;1.90;;;23.80;61.90;;;;;;4982760;28;87795;-86
2023/09/05 10:10:41;;;;;;;3.03;2.40;;;23.80;61.90;;;;;;4983711;28;87881;-86
2023/09/05 10:13:10;;;;;;;5.25;2.28;;;23.80;61.90;;;;;;4984447;28;87784;-86
2023/09/05 10:15:37;;;;;;;4.65;2.13;;;23.80;61.90;;;;;;4982899;28;88421;-85
2023/09/05 10:18:04;;;;;;;2.95;2.13;;;23.80;61.70;;;;;;4984521;28;87141;-86
2023/09/05 10:20:31;;;;;;;4.78;2.20;;;23.80;61.90;;;;;;4983894;28;87562;-85
2023/09/05 10:22:58;;;;;;;2.65;2.22;;;23.70;62.10;;;;;;4982368;28;88370;-86
2023/09/05 10:25:26;;;;;;;2.20;1.90;;;23.80;61.90;;;;;;4982061;28;87804;-86
2023/09/05 10:27:52;;;;;;;2.85;2.00;;;23.80;61.90;;;;;;4983765;28;87640;-86
2023/09/05 10:30:19;;;;;;;3.55;1.92;;;23.80;61.80;;;;;;4963787;28;90833;-85
2023/09/05 10:32:47;;;;;;;4.35;1.95;;;23.90;62.10;;;;;;4982712;28;88964;-85
2023/09/05 10:35:20;;;;;;;3.03;2.05;;;23.90;61.90;;;;;;4983971;28;87796;-87
2023/09/05 10:37:48;;;;;;;2.20;1.90;;;23.90;62.10;;;;;;4982204;28;88265;-86
2023/09/05 10:40:15;;;;;;;4.73;2.60;;;23.90;62.30;;;;;;4984921;28;86860;-85
2023/09/05 10:42:50;;;;;;;2.30;1.95;;;23.90;62.50;;;;;;4984311;28;87853;-87
2023/09/05 10:45:30;;;;;;;3.63;2.13;;;23.90;62.60;;;;;;4981828;28;87854;-86
2023/09/05 10:48:01;;;;;;;4.07;2.13;;;23.90;62.90;;;;;;4982145;28;87030;-86
2023/09/05 10:50:27;;;;;;;5.28;2.33;;;23.90;62.90;;;;;;4982157;28;87809;-84
2023/09/05 10:53:10;;;;;;;4.70;2.30;;;24.00;63.10;;;;;;4977768;28;88199;-85
2023/09/05 10:55:44;;;;;;;6.15;2.08;;;24.00;62.90;;;;;;4981716;28;87605;-84
2023/09/05 10:58:38;;;;;;;3.92;2.55;;;23.90;62.60;;;;;;4983069;28;87681;-86
2023/09/05 11:01:32;;;;;;;3.40;2.20;;;24.00;63.10;;;;;;4983213;28;91558;-85
2023/09/05 11:04:10;;;;;;;3.72;2.30;;;23.90;62.80;;;;;;4986362;28;93404;-86
2023/09/05 11:06:36;;;;;;;4.07;2.08;;;23.90;62.90;;;;;;4986468;28;88714;-85
2023/09/05 11:09:07;;;;;;;3.00;2.17;;;23.90;63.40;;;;;;4987608;28;87691;-85
2023/09/05 11:11:37;;;;;;;3.42;1.95;;;23.90;63.10;;;;;;4986354;28;87259;-85
2023/09/05 11:14:09;;;;;;;3.63;2.13;;;23.80;63.00;;;;;;4986953;28;87878;-85
2023/09/05 11:16:52;;;;;;;3.75;2.00;;;23.80;63.50;;;;;;4985424;28;88706;-84
2023/09/05 11:19:38;;;;;;;2.97;2.15;;;23.80;63.30;;;;;;4986492;28;88303;-85
2023/09/05 11:22:22;;;;;;;3.15;2.15;;;23.80;63.60;;;;;;4985363;28;88300;-86
2023/09/05 11:24:53;;;;;;;4.88;2.42;;;23.70;63.80;;;;;;4985737;28;91828;-85
2023/09/05 11:27:27;;;;;;;3.17;2.08;;;23.70;63.70;;;;;;4985826;28;87966;-85
2023/09/05 11:29:55;;;;;;;2.88;2.25;;;23.70;63.80;;;;;;4967510;28;88426;-85
2023/09/05 11:32:30;;;;;;;4.10;1.90;;;23.70;63.80;;;;;;4984905;28;87459;-84
2023/09/05 11:34:56;;;;;;;2.92;2.20;;;23.70;63.80;;;;;;4984484;28;88326;-85
2023/09/05 11:37:22;;;;;;;3.05;2.15;;;23.70;63.80;;;;;;4968610;28;88968;-85
2023/09/05 11:39:50;;;;;;;3.03;2.35;;;23.70;63.50;;;;;;4984999;28;87718;-86
2023/09/05 11:42:16;;;;;;;3.20;1.90;;;23.70;63.40;;;;;;4985696;28;87897;-84
2023/09/05 11:44:42;;;;;;;2.75;2.03;;;23.80;63.70;;;;;;4987040;28;88094;-84
2023/09/05 11:47:08;;;;;;;3.92;1.92;;;23.80;63.50;;;;;;4987399;28;87730;-86
2023/09/05 11:49:35;;;;;;;3.78;2.05;;;23.90;63.60;;;;;;4983175;28;87382;-85
2023/09/05 11:52:03;;;;;;;6.95;2.30;;;23.80;63.50;;;;;;4986425;28;87936;-86
2023/09/05 11:54:29;;;;;;;3.42;2.03;;;23.80;63.40;;;;;;4985626;28;89672;-85
2023/09/05 11:56:56;;;;;;;4.68;2.05;;;23.80;63.60;;;;;;4984409;28;88463;-86
2023/09/05 11:59:23;;;;;;;3.17;2.08;;;23.90;63.50;;;;;;4967437;28;88162;-85
2023/09/05 12:01:49;;;;;;;4.45;2.30;;;23.90;63.30;;;;;;4974253;28;88126;-85
2023/09/05 12:04:16;;;;;;;2.85;1.70;;;23.80;63.60;;;;;;4986825;28;88569;-85
2023/09/05 12:06:42;;;;;;;3.00;2.05;;;23.80;63.50;;;;;;4986761;28;90760;-84
2023/09/05 12:09:11;;;;;;;4.05;2.05;;;23.70;63.80;;;;;;4984904;28;88005;-85
2023/09/05 12:11:37;;;;;;;3.28;2.17;;;23.80;63.80;;;;;;4986712;28;87154;-85
2023/09/05 12:14:03;;;;;;;4.25;1.95;;;23.80;63.50;;;;;;4983993;28;88091;-85
2023/09/05 12:16:29;;;;;;;2.80;1.90;;;23.70;64.10;;;;;;4984982;28;87851;-85
2023/09/05 12:18:59;;;;;;;3.95;1.85;;;23.70;63.80;;;;;;4986740;28;88615;-85
2023/09/05 12:21:26;;;;;;;2.50;2.03;;;23.70;64.00;;;;;;4985912;28;87578;-85
2023/09/05 12:23:52;;;;;;;2.70;2.10;;;23.70;63.80;;;;;;4966916;28;91113;-86
2023/09/05 12:26:18;;;;;;;3.08;2.28;;;23.80;63.80;;;;;;4985261;28;87566;-85
2023/09/05 12:28:53;;;;;;;2.53;2.13;;;23.70;64.10;;;;;;4966417;28;87907;-86
2023/09/05 12:31:21;;;;;;;3.70;2.03;;;23.70;63.90;;;;;;4985690;28;87021;-85
2023/09/05 12:33:47;;;;;;;3.22;2.38;;;23.80;64.30;;;;;;4984742;28;88414;-85
2023/09/05 12:36:12;;;;;;;4.13;1.85;;;23.80;63.90;;;;;;4982584;28;87114;-85
2023/09/05 12:38:38;;;;;;;2.72;2.05;;;23.80;64.00;;;;;;4984525;28;87573;-85
2023/09/05 12:41:03;;;;;;;3.72;1.85;;;23.80;63.90;;;;;;4986726;28;87315;-86
2023/09/05 12:43:29;;;;;;;3.83;2.70;;;23.80;64.00;;;;;;4986058;28;88865;-87
2023/09/05 12:45:55;;;;;;;3.13;1.90;;;23.80;64.20;;;;;;4986625;28;87439;-86